• Join FlightAware (Why Join?)
  • Login
  • US Flag 
07:41AM EDT


 

Airport Tracker/Info


-or-


 

Live Flight TrackerFlight Track Log ✈ N924AK ✈ 20-Apr-2013 ✈ MMUN / CUN - KJFK

Flight Track Log - Related Links

Times and Time Zones

All times are in EDT time to prevent confusion due to time zone crossing. See the N924AK flight status page for this flight to view local times or setup timezone preferences in your user account.

Time Position Orientation Groundspeed Altitude Reporting Facility
EDT Latitude Longitude Course Direction KTS MPH feet Rate Location/Type
01:57AM 24.1699 -85.1490 27° Northeast  Level Estimated
01:58AM 24.2856 -85.0835 27° Northeast  Level Estimated
01:59AM 24.4013 -85.0178 27° Northeast  Level Estimated
02:00AM 24.5169 -84.9520 27° Northeast  Level Estimated
02:01AM 24.6325 -84.8860 27° Northeast  Level Estimated
02:02AM 24.7481 -84.8200 27° Northeast  Level Estimated
02:03AM 24.8636 -84.7538 27° Northeast  Level Estimated
02:04AM 24.9791 -84.6875 27° Northeast  Level Estimated
02:05AM 25.0946 -84.6211 28° Northeast  Level Estimated
02:06AM 25.2101 -84.5546 28° Northeast  Level Estimated
02:07AM 25.3255 -84.4879 28° Northeast  Level Estimated
02:08AM 25.4409 -84.4211 28° Northeast  Level Estimated
02:09AM 25.5562 -84.3541 28° Northeast  Level Estimated
02:10AM 25.6716 -84.2871 28° Northeast  Level Estimated
02:11AM 25.7869 -84.2199 28° Northeast  Level Estimated
02:12AM 25.9021 -84.1526 28° Northeast  Level Estimated
02:13AM 26.0174 -84.0851 28° Northeast  Level Estimated
02:14AM 26.1326 -84.0175 28° Northeast  Level Estimated
02:15AM 26.2478 -83.9498 28° Northeast  Level Estimated
02:16AM 26.3629 -83.8820 28° Northeast  Level Estimated
02:17AM 26.4780 -83.8140 28° Northeast  Level Estimated
02:18AM 26.5931 -83.7459 28° Northeast  Level Estimated
02:19AM 26.7082 -83.6776 28° Northeast  Level Estimated
02:20AM 26.8232 -83.6092 28° Northeast  Level Estimated
02:21AM 26.9382 -83.5407 28° Northeast  Level Estimated
02:21AM 23.9175 -86.1919 28° Northeast 502 578 37,000  Level Houston Center
02:22AM 27.0531 -83.4720 28° Northeast  Level Estimated
02:22AM 24.0336 -86.1628 13° North 432 497 37,000  Level Houston Center
02:23AM 27.1680 -83.4032 28° Northeast  Level Estimated
02:23AM 24.1461 -86.1094 23° Northeast 437 503 37,500  Level Houston Center
02:24AM 27.2829 -83.3342 28° Northeast  Level Estimated
02:24AM 24.2619 -86.0664 19° North 439 505 38,800  Level Houston Center
02:25AM 27.3978 -83.2651 28° Northeast  Level Estimated
02:25AM 24.3694 -86.0239 20° North 433 498 39,000  Level Houston Center
02:26AM 27.5126 -83.1959 28° Northeast  Level Estimated
02:26AM 24.4797 -85.9806 20° North 427 491 39,000  Level Houston Center
02:27AM 24.5964 -85.9361 19° North 429 494 39,000  Level Houston Center
02:28AM 24.7094 -85.8906 20° North 430 495 39,000  Level Houston Center
02:29AM 24.8278 -85.8458 19° North 434 499 39,000  Level Houston Center
02:30AM 24.9450 -85.7986 20° North 438 504 39,000  Level Houston Center
02:31AM 25.0619 -85.7533 19° North 441 507 39,000 -60 Level Houston Center
02:32AM 25.1789 -85.7081 19° North 442 509 38,900  Descending Houston Center
02:33AM 25.2892 -85.6642 20° North 439 505 39,000  Climbing Houston Center
02:34AM 25.4069 -85.6158 20° North 445 512 39,000  Level Houston Center
02:35AM 25.5194 -85.5464 29° Northeast 459 528 39,000  Level Houston Center
02:36AM 25.6339 -85.4767 29° Northeast 465 535 39,000  Level Houston Center
02:36AM 25.6844 -85.4464 28° Northeast 464 534 39,000  Level Miami Center
02:37AM 25.7994 -85.3694 31° Northeast 470 541 39,000  Level Miami Center
02:38AM 25.9100 -85.2967 31° Northeast 453 521 39,000  Level Miami Center
02:39AM 26.0183 -85.2233 31° Northeast 459 528 39,000  Level Miami Center
02:40AM 26.1411 -85.1558 26° Northeast 465 535 39,000  Level Miami Center
02:41AM 26.2475 -85.0800 33° Northeast 465 535 39,000  Level Miami Center
02:42AM 26.3681 -85.0122 27° Northeast 465 535 39,000  Level Miami Center
02:43AM 26.4828 -84.9389 30° Northeast 465 535 39,000  Level Miami Center
02:44AM 26.5831 -84.8600 35° Northeast 465 535 39,000  Level Miami Center
02:45AM 26.7014 -84.7892 28° Northeast 465 535 39,000  Level Miami Center
02:46AM 26.8200 -84.7183 28° Northeast 465 535 39,000  Level Miami Center
02:47AM 26.9325 -84.6444 30° Northeast 465 535 39,000  Level Miami Center
02:48AM 27.0447 -84.5706 30° Northeast 465 535 39,000  Level Miami Center
02:49AM 27.1633 -84.4969 29° Northeast 465 535 39,000  Level Miami Center
02:50AM 27.2778 -84.4228 30° Northeast 465 535 39,000  Level Miami Center
02:52AM 27.5042 -84.2750 30° Northeast 498 573 39,000  Level Jacksonville Center
02:53AM 27.6156 -84.1992 31° Northeast 477 549 39,000  Level Jacksonville Center
02:54AM 27.7350 -84.1233 29° Northeast 477 549 39,000  Level Jacksonville Center
02:55AM 27.8464 -84.0425 33° Northeast 477 549 39,000  Level Jacksonville Center
02:56AM 27.9661 -83.9617 31° Northeast 482 555 39,000  Level Jacksonville Center
02:57AM 28.0731 -83.8806 34° Northeast 477 549 39,000  Level Jacksonville Center
02:58AM 28.1989 -83.7922 32° Northeast 477 549 39,000  Level Jacksonville Center
02:59AM 28.3122 -83.7083 33° Northeast 477 549 39,000  Level Jacksonville Center
03:00AM 28.4275 -83.6267 32° Northeast 482 555 39,000  Level Jacksonville Center
03:01AM 28.5447 -83.5425 32° Northeast 482 555 39,000  Level Jacksonville Center
03:02AM 28.6600 -83.4628 31° Northeast 482 555 39,000  Level Jacksonville Center
03:03AM 28.7750 -83.3758 34° Northeast 482 555 39,000  Level Jacksonville Center
03:04AM 28.8922 -83.2933 32° Northeast 482 555 39,000  Level Jacksonville Center
03:05AM 28.9969 -83.2178 32° Northeast 482 555 39,000  Level Jacksonville Center
03:06AM 29.1161 -83.1328 32° Northeast 491 565 39,000  Level Jacksonville Center
03:07AM 29.2289 -83.0472 33° Northeast 496 571 39,000  Level Jacksonville Center
03:08AM 29.3436 -82.9617 33° Northeast 496 571 39,000  Level Jacksonville Center
03:09AM 29.4628 -82.8758 32° Northeast 496 571 39,000  Level Jacksonville Center
03:10AM 29.5839 -82.7947 30° Northeast 501 577 39,000  Level Jacksonville Center
03:11AM 29.7006 -82.7083 33° Northeast 501 577 39,000  Level Jacksonville Center
03:12AM 29.8172 -82.6147 35° Northeast 501 577 39,000  Level Jacksonville Center
03:13AM 29.9361 -82.5283 32° Northeast 508 585 39,000  Level Jacksonville Center
03:14AM 30.0506 -82.4461 32° Northeast 501 577 39,000  Level Jacksonville Center
03:15AM 30.1714 -82.3592 32° Northeast 501 577 39,000  Level Jacksonville Center
03:16AM 30.2900 -82.2647 35° Northeast 507 583 39,000  Level Jacksonville Center
03:17AM 30.4064 -82.1772 33° Northeast 507 583 39,000  Level Jacksonville Center
03:18AM 30.5250 -82.0872 33° Northeast 507 583 39,000  Level Jacksonville Center
03:19AM 30.6456 -82.0039 31° Northeast 502 578 39,000  Level Jacksonville Center
03:20AM 30.7742 -81.9061 33° Northeast 497 572 39,000  Level Jacksonville Center
03:21AM 30.8967 -81.8153 32° Northeast 502 578 39,000  Level Jacksonville Center
03:22AM 31.0150 -81.7242 33° Northeast 502 578 39,000  Level Jacksonville Center
03:23AM 31.1353 -81.6353 32° Northeast 502 578 39,000  Level Jacksonville Center
03:24AM 31.2553 -81.5414 34° Northeast 508 585 39,000  Level Jacksonville Center
03:25AM 31.3711 -81.4497 34° Northeast 508 585 39,000  Level Jacksonville Center
03:26AM 31.4953 -81.3553 33° Northeast 507 583 39,000  Level Jacksonville Center
03:27AM 31.5986 -81.2731 34° Northeast 507 583 39,000  Level Jacksonville Center
03:28AM 31.7289 -81.1731 33° Northeast 502 578 39,000  Level Jacksonville Center
03:29AM 31.8342 -81.0903 34° Northeast 501 577 39,000  Level Jacksonville Center
03:30AM 31.9603 -80.9925 33° Northeast 501 577 39,000  Level Jacksonville Center
03:31AM 32.0778 -80.9017 33° Northeast 501 577 39,000  Level Jacksonville Center
03:32AM 32.1975 -80.8108 33° Northeast 506 582 39,000  Level Jacksonville Center
03:33AM 32.3025 -80.7272 34° Northeast 506 582 39,000  Level Jacksonville Center
03:34AM 32.4219 -80.6308 34° Northeast 506 582 39,000  Level Jacksonville Center
03:35AM 32.5414 -80.5367 34° Northeast 511 588 39,000  Level Jacksonville Center
03:36AM 32.6625 -80.4422 33° Northeast 511 588 39,000  Level Jacksonville Center
03:37AM 32.7778 -80.3503 34° Northeast 506 582 39,000  Level Jacksonville Center
03:38AM 32.8886 -80.2581 35° Northeast 501 577 39,000  Level Jacksonville Center
03:39AM 33.0097 -80.1653 33° Northeast 507 583 39,000  Level Jacksonville Center
03:40AM 33.1431 -80.0544 35° Northeast 507 583 39,000 -60 Level Jacksonville Center
03:41AM 33.2597 -79.9614 34° Northeast 513 590 38,900 -360 Descending Jacksonville Center
03:42AM 33.3767 -79.8681 34° Northeast 508 585 38,300 -840 Descending Jacksonville Center
03:43AM 33.4972 -79.7692 34° Northeast 508 585 37,300 -1,020 Descending Jacksonville Center
03:44AM 33.6178 -79.6703 34° Northeast 513 590 36,300 -1,080 Descending Jacksonville Center
03:45AM 33.7364 -79.5761 33° Northeast 513 590 35,200 -1,080 Descending Jacksonville Center
03:46AM 33.8550 -79.4792 34° Northeast 513 590 34,200 -1,020 Descending Jacksonville Center
03:48AM 34.0856 -79.2903 34° Northeast 509 586 32,100 -1,020 Descending Washington Center
03:49AM 34.1947 -79.1997 34° Northeast 491 565 31,100 -900 Descending Washington Center
03:50AM 34.3208 -79.0922 35° Northeast 491 565 30,300 -600 Descending Washington Center
03:51AM 34.4192 -79.0133 33° Northeast 484 557 30,000 -180 Descending Washington Center
03:52AM 34.5411 -78.9100 35° Northeast 479 551 30,000  Level Washington Center
03:53AM 34.6500 -78.8186 35° Northeast 479 551 30,000  Level Washington Center
03:54AM 34.7631 -78.7219 35° Northeast 484 557 30,000  Level Washington Center
03:55AM 34.8783 -78.6250 35° Northeast 493 567 30,000  Level Washington Center
03:56AM 34.9933 -78.5278 35° Northeast 500 575 30,000  Level Washington Center
03:57AM 35.1128 -78.4256 35° Northeast 500 575 30,000  Level Washington Center
03:58AM 35.2278 -78.3253 35° Northeast 505 581 30,000  Level Washington Center
03:59AM 35.3342 -78.2347 35° Northeast 511 588 30,000  Level Washington Center
04:00AM 35.4531 -78.1317 35° Northeast 516 594 30,000  Level Washington Center
04:01AM 35.5700 -78.0333 34° Northeast 516 594 30,000  Level Washington Center
04:02AM 35.6889 -77.9294 35° Northeast 516 594 30,000  Level Washington Center
04:03AM 35.8075 -77.8306 34° Northeast 516 594 30,000  Level Washington Center
04:04AM 35.9242 -77.7261 36° Northeast 516 594 30,000  Level Washington Center
04:05AM 36.0408 -77.6264 35° Northeast 516 594 30,000  Level Washington Center
04:06AM 36.1572 -77.5239 35° Northeast 516 594 30,000  Level Washington Center
04:07AM 36.2714 -77.4211 36° Northeast 516 594 30,000  Level Washington Center
04:08AM 36.3900 -77.3156 36° Northeast 510 587 30,000  Level Washington Center
04:09AM 36.5061 -77.2147 35° Northeast 510 587 30,000  Level Washington Center
04:10AM 36.6200 -77.1083 37° Northeast 510 587 30,000  Level Washington Center
04:11AM 36.7361 -77.0044 36° Northeast 510 587 30,000  Level Washington Center
04:12AM 36.8561 -76.8975 35° Northeast 510 587 30,000  Level Washington Center
04:13AM 36.9847 -76.7800 36° Northeast 515 593 30,000  Level Washington Center
04:14AM 37.1025 -76.6725 36° Northeast 515 593 30,000  Level Washington Center
04:15AM 37.2181 -76.5672 36° Northeast 515 593 30,000  Level Washington Center
04:16AM 37.3358 -76.4592 36° Northeast 520 598 30,000  Level Washington Center
04:17AM 37.4556 -76.3506 36° Northeast 520 598 30,000  Level Washington Center
04:18AM 37.5750 -76.2417 36° Northeast 525 604 30,000  Level Washington Center
04:19AM 37.6944 -76.1350 35° Northeast 525 604 30,000  Level Washington Center
04:20AM 37.7992 -76.0333 37° Northeast 531 611 30,000  Level Washington Center
04:21AM 37.9161 -75.9261 36° Northeast 526 605 30,000  Level Washington Center
04:22AM 38.0478 -75.8000 37° Northeast 531 611 30,000  Level Washington Center
04:23AM 38.1544 -75.7000 36° Northeast 526 605 30,000  Level Washington Center
04:24AM 38.2733 -75.5892 36° Northeast 526 605 30,000  Level Washington Center
04:25AM 38.3942 -75.4778 36° Northeast 526 605 30,000  Level Washington Center
04:26AM 38.5128 -75.3689 36° Northeast 526 605 30,000  Level Washington Center
04:27AM 38.6314 -75.2542 37° Northeast 526 605 30,000  Level Washington Center
04:28AM 38.7497 -75.1392 37° Northeast 526 605 30,000  Level Washington Center
04:29AM 38.8681 -75.0264 37° Northeast 526 605 30,000  Level Washington Center
04:30AM 38.9842 -74.9106 38° Northeast 526 605 30,000 -360 Level Washington Center
04:31AM 39.1003 -74.7972 37° Northeast 526 605 29,300 -1,320 Descending Washington Center
04:32AM 39.2100 -74.6808 39° Northeast 519 597 27,400 -2,340 Descending Washington Center
04:33AM 39.3172 -74.5642 40° Northeast 507 583 24,700 -2,760 Descending Washington Center
04:34AM 39.3556 -74.5244 39° Northeast 497 572 23,600 -2,820 Descending New York Center
04:35AM 39.4528 -74.4139 41° Northeast 472 543 20,800 -2,640 Descending New York Center
04:36AM 39.5564 -74.2981 41° Northeast 448 516 18,300 -1,380 Descending New York Center
04:37AM 39.6447 -74.2056 39° Northeast 416 479 18,000 -180 Descending New York Center
04:38AM 39.7244 -74.1178 40° Northeast 391 450 18,000 -600 Level New York Center
04:39AM 39.7953 -74.0400 40° Northeast 369 425 16,900 -1,680 Descending New York Center
04:40AM 39.8786 -73.9628 35° Northeast 363 418 14,700 -2,400 Descending New York Center
04:41AM 39.9783 -73.9022 25° Northeast 357 411 12,100 -1,800 Descending New York Center
04:42AM 40.0631 -73.8519 24° Northeast 339 390 11,100 -1,200 Descending New York Center
04:43AM 40.1369 -73.8092 24° Northeast 310 357 9,800 -1,380 Descending New York Center
04:43AM 40.1667 -73.8000 13° North 286 329 9,400 -1,440 Descending New York TRACON
04:44AM 40.2167 -73.7667 27° Northeast 270 311 8,100 -1,500 Descending New York TRACON
04:45AM 40.2833 -73.7333 21° North 261 300 6,700 -1,440 Descending New York TRACON
04:46AM 40.3500 -73.7000 21° North 250 288 5,400 -1,440 Descending New York TRACON
04:47AM 40.4167 -73.6667 21° North 244 281 3,900 -1,200 Descending New York TRACON
04:48AM 40.4667 -73.6000 45° Northeast 233 268 3,100 -480 Descending New York TRACON
04:49AM 40.5000 -73.6000 360° North 211 243 3,100 -300 Level New York TRACON
04:50AM 40.5500 -73.6500 323° Northwest 176 203 2,600 -600 Descending New York TRACON
04:51AM 40.5833 -73.6833 323° Northwest 139 160 1,900 -720 Descending New York TRACON
04:52AM 40.6000 -73.7167 303° West 111 128 1,200 -660 Descending New York TRACON
04:53AM 40.6167 -73.7500 303° West 117 135 600 3,240 Descending New York TRACON
04:55AM 40.6472 -73.8181 301° West 108 124 11,000 3,420 Climbing New York Center
04:56AM 40.6631 -73.8542 300° West 108 124 11,000  Level New York Center
04:57AM 40.6767 -73.8878 298° West 108 124 11,000  Level New York Center
04:58AM 40.6828 -73.9017 300° West 108 124 11,000  Level New York Center
05:01AM 40.6398 -73.7789 108° East  Level Estimated
05:08AM 40.6398 -73.7789 108° East  Level Estimated
05:09AM 40.6398 -73.7789 108° East  Level Estimated
05:10AM 40.6398 -73.7789 108° East  Level Estimated
05:11AM 40.6398 -73.7789 108° East  Level Estimated
05:12AM 40.6398 -73.7789 108° East  Level Estimated
05:13AM 40.6398 -73.7789 108° East  Level Estimated
05:14AM 40.6398 -73.7789 108° East  Level Estimated